Time;durP1;ratioP1;P1;durP2;ratioP2;P2;SDS_P1;SDS_P2;PMS_P1;PMS_P2;Temp;Humidity;BMP_temperature;BMP_pressure;BME280_temperature;BME280_humidity;BME280_pressure;Samples;Min_cycle;Max_cycle;Signal;HPM_P1;HPM_P2
2021/10/23 00:01:36;;;;;;;4.03;1.83;;;5.40;99.90;;;;;;4983263;28;20538;-81
2021/10/23 00:04:02;;;;;;;3.08;1.65;;;5.40;99.90;;;;;;5003226;28;20094;-81
2021/10/23 00:06:27;;;;;;;4.82;1.73;;;5.40;99.90;;;;;;5005744;28;20045;-82
2021/10/23 00:08:53;;;;;;;5.38;2.40;;;5.40;99.90;;;;;;5002131;28;20033;-82
2021/10/23 00:11:19;;;;;;;4.47;2.42;;;5.40;99.90;;;;;;5002687;28;20022;-81
2021/10/23 00:13:45;;;;;;;4.30;1.73;;;5.30;99.90;;;;;;5002778;28;20058;-82
2021/10/23 00:16:10;;;;;;;4.13;1.95;;;5.30;99.90;;;;;;4987908;28;20022;-81
2021/10/23 00:18:36;;;;;;;6.15;2.03;;;5.30;99.90;;;;;;4995787;28;20094;-81
2021/10/23 00:21:03;;;;;;;4.40;1.67;;;5.30;99.90;;;;;;5008708;28;20022;-81
2021/10/23 00:23:29;;;;;;;2.35;1.83;;;5.30;99.90;;;;;;5015900;28;20026;-82
2021/10/23 00:25:55;;;;;;;4.00;1.90;;;5.30;99.90;;;;;;5021956;28;20428;-81
2021/10/23 00:28:21;;;;;;;2.58;1.52;;;5.20;99.90;;;;;;5021312;28;20030;-80
2021/10/23 00:30:47;;;;;;;5.70;1.95;;;5.30;99.90;;;;;;5004039;28;20034;-80
2021/10/23 00:33:12;;;;;;;3.28;1.33;;;5.20;99.90;;;;;;5015363;28;20018;-81
2021/10/23 00:35:38;;;;;;;4.78;1.65;;;5.30;99.90;;;;;;5001733;28;20029;-81
2021/10/23 00:38:04;;;;;;;3.53;1.95;;;5.20;99.90;;;;;;5001523;28;20015;-81
2021/10/23 00:40:30;;;;;;;4.25;1.63;;;5.20;99.90;;;;;;5001587;28;20538;-80
2021/10/23 00:42:58;;;;;;;6.05;1.52;;;5.20;99.90;;;;;;5001464;28;20093;-81
2021/10/23 00:45:25;;;;;;;3.47;1.50;;;5.20;99.90;;;;;;5001355;28;20026;-81
2021/10/23 00:47:50;;;;;;;6.45;1.95;;;5.20;99.90;;;;;;5007622;28;20082;-80
2021/10/23 00:50:17;;;;;;;3.97;2.25;;;5.20;99.90;;;;;;4995779;28;20026;-80
2021/10/23 00:52:43;;;;;;;6.40;2.30;;;5.20;99.90;;;;;;5013132;28;20387;-80
2021/10/23 00:55:10;;;;;;;3.53;1.88;;;5.20;99.90;;;;;;5003134;28;20026;-81
2021/10/23 00:57:38;;;;;;;6.50;1.70;;;5.20;99.90;;;;;;5027210;28;20106;-80
2021/10/23 01:00:06;;;;;;;4.20;1.80;;;5.20;99.90;;;;;;5019536;28;20098;-82
2021/10/23 01:02:32;;;;;;;2.65;1.40;;;5.20;99.90;;;;;;5010245;28;20109;-82
2021/10/23 01:04:57;;;;;;;4.63;2.00;;;5.20;99.90;;;;;;5004108;28;20080;-80
2021/10/23 01:07:23;;;;;;;7.03;1.55;;;5.20;99.90;;;;;;5020945;28;20075;-81
2021/10/23 01:09:49;;;;;;;2.95;1.35;;;5.20;99.90;;;;;;5001200;28;20827;-80
2021/10/23 01:12:16;;;;;;;1.77;1.20;;;5.20;99.90;;;;;;5001774;28;20053;-80
2021/10/23 01:14:44;;;;;;;3.83;1.48;;;5.20;99.90;;;;;;5003796;28;20019;-80
2021/10/23 01:17:10;;;;;;;4.32;1.33;;;5.20;99.90;;;;;;4993696;28;20435;-81
2021/10/23 01:19:36;;;;;;;3.20;1.45;;;5.20;99.90;;;;;;4983317;28;20090;-84
2021/10/23 01:22:02;;;;;;;3.33;1.50;;;5.10;99.90;;;;;;5012012;28;20031;-81
2021/10/23 01:24:29;;;;;;;2.10;1.50;;;5.10;99.90;;;;;;5019497;28;20030;-82
2021/10/23 01:26:55;;;;;;;3.47;1.45;;;5.20;99.90;;;;;;5003925;28;20053;-80
2021/10/23 01:29:21;;;;;;;3.60;1.73;;;5.20;99.90;;;;;;4999442;28;20081;-80
2021/10/23 01:31:50;;;;;;;4.93;2.00;;;5.20;99.90;;;;;;4997813;28;20093;-81
2021/10/23 01:34:22;;;;;;;5.65;1.55;;;5.20;99.90;;;;;;4999779;28;20030;-80
2021/10/23 01:36:50;;;;;;;3.22;1.50;;;5.20;99.90;;;;;;4999057;28;20072;-81
2021/10/23 01:39:16;;;;;;;3.15;1.67;;;5.20;99.90;;;;;;4999333;28;20086;-80
2021/10/23 01:41:43;;;;;;;5.85;2.00;;;5.20;99.90;;;;;;4982424;28;20058;-81
2021/10/23 01:44:10;;;;;;;4.38;1.60;;;5.10;99.90;;;;;;4999561;28;20034;-82
2021/10/23 01:46:36;;;;;;;3.03;1.70;;;5.10;99.90;;;;;;4999854;28;20031;-80
2021/10/23 01:49:04;;;;;;;10.05;1.75;;;5.20;99.90;;;;;;5001755;28;20045;-80
2021/10/23 01:51:32;;;;;;;3.65;1.75;;;5.10;99.90;;;;;;4985026;28;20030;-80
2021/10/23 01:54:00;;;;;;;3.40;1.58;;;5.10;99.90;;;;;;5010009;28;20018;-81
2021/10/23 01:56:26;;;;;;;4.53;1.20;;;5.10;99.90;;;;;;5000477;28;20030;-81
2021/10/23 01:58:52;;;;;;;6.53;1.80;;;5.10;99.90;;;;;;5017856;28;20431;-80
2021/10/23 02:01:17;;;;;;;3.75;1.70;;;5.00;99.90;;;;;;4986359;28;20045;-81
2021/10/23 02:03:43;;;;;;;2.70;1.42;;;5.00;99.90;;;;;;4980312;28;20073;-81
2021/10/23 02:06:10;;;;;;;6.72;3.78;;;5.00;99.90;;;;;;4979498;28;20041;-81
2021/10/23 02:08:36;;;;;;;5.75;1.70;;;5.10;99.90;;;;;;5000901;28;20022;-81
2021/10/23 02:11:02;;;;;;;3.47;1.88;;;5.10;99.90;;;;;;5016837;28;20118;-80
2021/10/23 02:13:28;;;;;;;5.32;1.90;;;5.00;99.90;;;;;;5016764;28;20025;-80
2021/10/23 02:15:53;;;;;;;3.45;1.40;;;5.00;99.90;;;;;;5002068;28;20049;-80
2021/10/23 02:18:19;;;;;;;4.55;1.80;;;5.00;99.90;;;;;;4981563;28;20061;-80
2021/10/23 02:20:45;;;;;;;3.08;1.60;;;5.00;99.90;;;;;;4999619;28;20082;-81
2021/10/23 02:23:11;;;;;;;4.10;1.45;;;5.00;99.90;;;;;;5000100;28;20492;-81
2021/10/23 02:25:36;;;;;;;5.53;2.00;;;5.00;99.90;;;;;;5014121;28;20078;-80
2021/10/23 02:28:02;;;;;;;4.13;1.63;;;5.10;99.90;;;;;;5019424;28;20018;-81
2021/10/23 02:30:28;;;;;;;6.22;1.73;;;5.10;99.90;;;;;;5001816;28;20026;-80
2021/10/23 02:32:53;;;;;;;6.25;1.92;;;5.20;99.90;;;;;;5016289;28;20096;-80
2021/10/23 02:35:19;;;;;;;5.78;1.58;;;5.30;99.90;;;;;;5000203;28;20031;-80
2021/10/23 02:37:46;;;;;;;5.03;1.52;;;5.50;99.30;;;;;;4999394;28;20026;-81
2021/10/23 02:40:12;;;;;;;5.43;2.10;;;5.60;99.00;;;;;;4999472;28;20034;-80
2021/10/23 02:42:39;;;;;;;5.13;1.70;;;5.60;98.80;;;;;;4998881;28;20023;-81
2021/10/23 02:45:06;;;;;;;4.55;1.60;;;5.70;98.50;;;;;;4999038;28;20034;-81
2021/10/23 02:47:32;;;;;;;2.60;1.45;;;5.80;98.10;;;;;;4981778;28;20603;-81
2021/10/23 02:49:58;;;;;;;3.50;1.42;;;5.90;98.00;;;;;;4999481;28;20058;-80
2021/10/23 02:52:23;;;;;;;2.35;1.38;;;5.90;97.90;;;;;;4998866;28;20022;-81
2021/10/23 02:54:49;;;;;;;2.58;1.45;;;6.00;97.60;;;;;;5003301;28;20049;-81
2021/10/23 02:57:15;;;;;;;3.53;1.70;;;6.00;97.40;;;;;;4980688;28;20110;-81
2021/10/23 02:59:43;;;;;;;3.80;1.40;;;6.00;97.00;;;;;;4980776;28;20031;-80
2021/10/23 03:02:09;;;;;;;5.05;1.30;;;6.00;97.00;;;;;;5017288;28;20007;-79
2021/10/23 03:04:36;;;;;;;6.65;1.48;;;6.00;96.80;;;;;;4988351;28;20053;-83
2021/10/23 03:07:02;;;;;;;5.10;1.90;;;6.00;96.70;;;;;;5000022;28;20158;-80
2021/10/23 03:09:27;;;;;;;3.00;1.13;;;6.00;96.60;;;;;;4990888;28;20334;-81
2021/10/23 03:11:53;;;;;;;4.65;1.48;;;6.10;96.40;;;;;;5008651;28;20498;-80
2021/10/23 03:14:19;;;;;;;3.25;1.40;;;6.10;95.80;;;;;;5007213;28;20041;-81
2021/10/23 03:16:45;;;;;;;2.15;1.20;;;6.10;96.00;;;;;;4987941;28;20033;-80
2021/10/23 03:19:11;;;;;;;3.92;1.10;;;6.20;95.90;;;;;;5016977;28;20034;-79
2021/10/23 03:21:37;;;;;;;6.43;1.40;;;6.20;95.90;;;;;;5010236;28;20027;-81
2021/10/23 03:24:03;;;;;;;3.45;1.40;;;6.20;95.80;;;;;;5019701;28;20497;-80
2021/10/23 03:26:28;;;;;;;5.43;1.13;;;6.20;95.70;;;;;;5001838;28;20534;-81
2021/10/23 03:28:56;;;;;;;2.85;1.45;;;6.20;95.60;;;;;;5003445;28;20029;-81
2021/10/23 03:31:22;;;;;;;3.83;1.27;;;6.20;95.70;;;;;;4985935;28;20095;-81
2021/10/23 03:33:47;;;;;;;4.07;1.20;;;6.20;95.60;;;;;;5003406;28;20057;-81
2021/10/23 03:36:13;;;;;;;4.05;1.40;;;6.20;95.50;;;;;;5004140;28;20022;-81
2021/10/23 03:38:39;;;;;;;2.45;1.23;;;6.30;95.60;;;;;;5004486;28;20029;-81
2021/10/23 03:41:04;;;;;;;2.67;1.05;;;6.30;95.10;;;;;;5004716;28;20027;-81
2021/10/23 03:43:30;;;;;;;3.20;1.60;;;6.30;95.00;;;;;;4993197;28;20028;-80
2021/10/23 03:45:56;;;;;;;4.72;1.33;;;6.30;95.00;;;;;;5015807;28;20053;-80
2021/10/23 03:48:22;;;;;;;1.58;0.93;;;6.30;95.10;;;;;;4991012;28;20102;-82
2021/10/23 03:50:48;;;;;;;4.03;1.50;;;6.40;95.10;;;;;;5004244;28;20030;-82
2021/10/23 03:53:13;;;;;;;4.78;1.65;;;6.30;95.00;;;;;;4993490;28;20037;-84
2021/10/23 03:55:39;;;;;;;5.50;1.30;;;6.30;95.10;;;;;;4984655;28;20488;-81
2021/10/23 03:58:05;;;;;;;2.30;1.40;;;6.40;94.90;;;;;;5000954;28;20085;-81
2021/10/23 04:00:31;;;;;;;4.57;1.20;;;6.40;94.90;;;;;;5001170;28;20026;-81
2021/10/23 04:02:57;;;;;;;4.47;1.60;;;6.40;95.30;;;;;;5000937;28;20015;-80
2021/10/23 04:05:23;;;;;;;5.18;1.20;;;6.40;94.90;;;;;;5001653;28;20459;-81
2021/10/23 04:07:49;;;;;;;2.88;1.38;;;6.50;94.90;;;;;;4982456;28;20483;-81
2021/10/23 04:10:16;;;;;;;5.03;1.20;;;6.50;94.80;;;;;;4983947;28;20026;-81
2021/10/23 04:12:41;;;;;;;3.42;1.17;;;6.50;94.70;;;;;;5000845;28;20093;-81
2021/10/23 04:15:08;;;;;;;1.63;0.93;;;6.60;94.50;;;;;;5000804;28;20022;-81
2021/10/23 04:17:34;;;;;;;3.95;1.10;;;6.60;94.50;;;;;;4983155;28;20133;-81
2021/10/23 04:19:59;;;;;;;3.15;1.20;;;6.60;94.40;;;;;;5000953;28;20041;-82
2021/10/23 04:22:25;;;;;;;1.63;0.70;;;6.70;94.40;;;;;;5005575;28;20025;-81
2021/10/23 04:24:51;;;;;;;3.90;1.27;;;6.70;94.40;;;;;;5011857;28;20026;-81
2021/10/23 04:27:17;;;;;;;5.85;1.40;;;6.70;94.10;;;;;;5011589;28;20117;-82
2021/10/23 04:29:43;;;;;;;7.00;1.40;;;6.70;94.10;;;;;;4997890;28;20117;-81
2021/10/23 04:32:09;;;;;;;3.20;1.88;;;6.70;94.10;;;;;;4999885;28;20045;-81
2021/10/23 04:34:36;;;;;;;2.45;1.20;;;6.80;93.90;;;;;;5000637;28;20034;-81
2021/10/23 04:37:05;;;;;;;2.30;1.20;;;6.70;93.90;;;;;;4999790;28;20042;-82
2021/10/23 04:39:31;;;;;;;4.78;1.10;;;6.70;93.80;;;;;;5000320;28;20030;-81
2021/10/23 04:41:57;;;;;;;4.85;0.80;;;6.70;93.90;;;;;;5000312;28;20106;-82
2021/10/23 04:44:23;;;;;;;2.40;0.80;;;6.70;93.90;;;;;;5000910;28;20107;-81
2021/10/23 04:46:49;;;;;;;4.97;1.30;;;6.70;94.00;;;;;;4982969;28;20038;-80
2021/10/23 04:49:15;;;;;;;4.93;0.90;;;6.70;94.10;;;;;;5002244;28;20038;-81
2021/10/23 04:51:42;;;;;;;2.30;1.02;;;6.70;94.10;;;;;;5000541;28;20042;-82
2021/10/23 04:54:07;;;;;;;3.03;1.05;;;6.70;94.10;;;;;;5011997;28;20371;-82
2021/10/23 04:56:34;;;;;;;2.80;0.90;;;6.80;94.10;;;;;;5020691;28;20045;-82
2021/10/23 04:59:00;;;;;;;3.95;1.00;;;6.80;94.00;;;;;;5006589;28;20377;-82
2021/10/23 05:01:26;;;;;;;2.40;0.93;;;6.80;94.10;;;;;;4981409;28;20126;-80
2021/10/23 05:03:52;;;;;;;2.08;0.80;;;6.80;94.30;;;;;;5006776;28;20019;-83
2021/10/23 05:06:18;;;;;;;2.05;0.75;;;6.80;94.10;;;;;;4999462;28;20050;-81
2021/10/23 05:08:44;;;;;;;3.15;1.02;;;6.80;94.10;;;;;;4998887;28;20499;-81
2021/10/23 05:11:10;;;;;;;2.38;1.20;;;6.80;94.00;;;;;;5001079;28;20529;-81
2021/10/23 05:13:36;;;;;;;1.83;1.15;;;6.80;94.10;;;;;;4997569;28;20171;-82
2021/10/23 05:16:02;;;;;;;3.47;0.90;;;6.80;94.10;;;;;;4999003;28;20030;-82
2021/10/23 05:18:28;;;;;;;4.55;1.23;;;6.80;94.30;;;;;;4982701;28;20049;-80
2021/10/23 05:20:54;;;;;;;9.10;4.40;;;6.80;94.10;;;;;;5000573;28;20490;-82
2021/10/23 05:23:20;;;;;;;8.73;3.92;;;6.80;94.00;;;;;;5007085;28;20014;-82
2021/10/23 05:25:46;;;;;;;6.13;3.05;;;6.80;94.10;;;;;;5013512;28;20025;-82
2021/10/23 05:28:12;;;;;;;3.30;1.73;;;6.80;94.20;;;;;;4999324;28;20022;-82
2021/10/23 05:30:38;;;;;;;5.43;1.88;;;6.80;94.10;;;;;;5000373;28;20129;-82
2021/10/23 05:33:04;;;;;;;2.90;1.35;;;6.80;94.20;;;;;;4980099;28;20026;-82
2021/10/23 05:35:30;;;;;;;3.53;1.10;;;6.70;94.10;;;;;;4997541;28;20054;-82
2021/10/23 05:37:56;;;;;;;4.40;1.73;;;6.80;94.10;;;;;;4981934;28;20452;-82
2021/10/23 05:40:22;;;;;;;5.38;2.47;;;6.70;94.10;;;;;;4998163;28;20514;-82
2021/10/23 05:42:47;;;;;;;7.18;2.72;;;6.80;94.10;;;;;;4998779;28;20395;-81
2021/10/23 05:45:13;;;;;;;4.35;2.28;;;6.80;94.10;;;;;;4998196;28;20027;-82
2021/10/23 05:47:39;;;;;;;14.32;5.63;;;6.80;94.00;;;;;;4997532;28;20022;-81
2021/10/23 05:50:07;;;;;;;13.52;4.55;;;6.80;94.10;;;;;;4979992;28;20026;-80
2021/10/23 05:52:33;;;;;;;17.70;8.13;;;6.80;94.00;;;;;;5004161;28;20012;-80
2021/10/23 05:54:59;;;;;;;11.85;5.90;;;6.80;93.90;;;;;;5009749;28;20060;-81
2021/10/23 05:57:25;;;;;;;10.50;4.13;;;6.70;94.00;;;;;;5016987;28;20034;-82
2021/10/23 05:59:51;;;;;;;4.78;2.55;;;6.70;94.20;;;;;;5016952;28;20029;-81
2021/10/23 06:02:31;;;;;;;5.68;2.28;;;6.70;94.30;;;;;;4999990;28;20049;-82
2021/10/23 06:04:59;;;;;;;4.88;1.50;;;6.70;94.40;;;;;;5012866;28;20026;-82
2021/10/23 06:07:27;;;;;;;2.75;1.83;;;6.70;94.50;;;;;;4996742;28;20030;-82
2021/10/23 06:09:55;;;;;;;3.83;1.67;;;6.70;94.40;;;;;;4997242;28;20097;-82
2021/10/23 06:12:21;;;;;;;4.55;1.30;;;6.70;94.40;;;;;;4981125;28;20034;-82
2021/10/23 06:14:47;;;;;;;4.97;1.25;;;6.80;94.40;;;;;;4980172;28;20023;-82
2021/10/23 06:17:12;;;;;;;3.90;1.17;;;6.80;94.30;;;;;;4997168;28;20023;-83
2021/10/23 06:19:38;;;;;;;5.47;1.52;;;6.90;94.20;;;;;;5003775;28;20591;-82
2021/10/23 06:22:06;;;;;;;1.40;0.98;;;6.90;94.20;;;;;;4986693;28;20088;-81
2021/10/23 06:24:32;;;;;;;1.50;1.00;;;7.00;94.10;;;;;;5010342;28;20026;-82
2021/10/23 06:26:58;;;;;;;4.07;1.40;;;7.00;94.00;;;;;;5017101;28;20048;-81
2021/10/23 06:29:24;;;;;;;4.13;1.20;;;7.10;93.70;;;;;;5017171;28;20022;-81
2021/10/23 06:31:50;;;;;;;4.15;1.50;;;7.00;93.50;;;;;;5001336;28;20026;-82
2021/10/23 06:34:16;;;;;;;4.10;1.35;;;7.10;93.60;;;;;;5001199;28;20029;-82
2021/10/23 06:36:42;;;;;;;2.75;1.10;;;7.10;93.50;;;;;;5007892;28;20038;-82
2021/10/23 06:39:07;;;;;;;3.70;1.20;;;7.10;93.40;;;;;;4997517;28;20030;-82
2021/10/23 06:41:35;;;;;;;1.60;1.00;;;7.10;93.40;;;;;;4985975;28;20098;-82
2021/10/23 06:44:02;;;;;;;2.15;1.00;;;7.20;93.30;;;;;;5008095;28;20041;-80
2021/10/23 06:46:28;;;;;;;4.97;1.23;;;7.20;93.20;;;;;;5000085;28;20039;-80
2021/10/23 06:48:54;;;;;;;3.47;1.08;;;7.30;93.00;;;;;;4997256;28;20026;-81
2021/10/23 06:51:19;;;;;;;2.38;0.88;;;7.40;92.90;;;;;;4997596;28;20026;-81
2021/10/23 06:53:45;;;;;;;2.97;1.10;;;7.50;92.70;;;;;;4990803;28;20476;-81
2021/10/23 06:56:11;;;;;;;2.55;0.95;;;7.60;92.60;;;;;;4981794;28;20137;-81
2021/10/23 06:58:37;;;;;;;1.77;0.95;;;7.70;92.40;;;;;;4983011;28;20027;-81
2021/10/23 07:01:05;;;;;;;3.08;1.13;;;7.70;92.20;;;;;;4966074;28;20027;-82
2021/10/23 07:03:31;;;;;;;3.85;1.05;;;7.80;91.90;;;;;;4982940;28;20023;-82
2021/10/23 07:05:57;;;;;;;2.95;0.95;;;7.90;91.70;;;;;;4981723;28;20035;-82
2021/10/23 07:08:23;;;;;;;2.92;0.90;;;7.90;91.80;;;;;;5001804;28;20034;-83
2021/10/23 07:10:49;;;;;;;2.05;0.88;;;8.00;91.40;;;;;;5002722;28;20086;-82
2021/10/23 07:13:15;;;;;;;1.38;0.95;;;8.10;91.30;;;;;;5002173;28;20027;-82
2021/10/23 07:15:40;;;;;;;1.10;0.93;;;8.20;91.30;;;;;;5002002;28;20049;-81
2021/10/23 07:18:06;;;;;;;1.95;0.90;;;8.30;91.20;;;;;;4983309;28;20022;-82
2021/10/23 07:20:32;;;;;;;1.83;0.90;;;8.40;90.90;;;;;;5000807;28;20427;-81
2021/10/23 07:23:01;;;;;;;2.67;1.15;;;8.50;90.50;;;;;;4991316;28;20102;-82
2021/10/23 07:25:27;;;;;;;2.53;1.15;;;8.50;90.30;;;;;;5014273;28;20038;-81
2021/10/23 07:27:52;;;;;;;6.05;1.55;;;8.60;90.30;;;;;;5020479;28;20041;-81
2021/10/23 07:30:18;;;;;;;3.97;1.40;;;8.70;89.40;;;;;;5020133;28;20022;-82
2021/10/23 07:32:44;;;;;;;2.70;1.33;;;8.80;88.80;;;;;;5001613;28;20033;-81
2021/10/23 07:35:11;;;;;;;2.40;1.10;;;8.80;88.50;;;;;;5006631;28;20031;-81
2021/10/23 07:37:37;;;;;;;3.38;1.30;;;8.80;88.10;;;;;;5005370;28;20467;-81
2021/10/23 07:40:05;;;;;;;6.78;1.52;;;8.90;88.00;;;;;;5005191;28;20046;-81
2021/10/23 07:42:31;;;;;;;5.53;1.50;;;8.90;87.50;;;;;;5000622;28;20495;-81
2021/10/23 07:44:57;;;;;;;4.18;1.33;;;9.00;86.70;;;;;;5001339;28;20034;-81
2021/10/23 07:47:23;;;;;;;2.95;0.80;;;9.00;86.00;;;;;;4999582;28;20459;-81
2021/10/23 07:49:49;;;;;;;2.97;0.85;;;9.10;86.20;;;;;;4999074;28;20055;-81
2021/10/23 07:52:16;;;;;;;3.22;1.33;;;9.20;86.10;;;;;;4982492;28;20510;-81
2021/10/23 07:54:42;;;;;;;5.97;1.80;;;9.30;85.10;;;;;;5007862;28;20105;-82
2021/10/23 07:57:08;;;;;;;3.80;1.70;;;9.50;83.70;;;;;;5000006;28;20101;-82
2021/10/23 07:59:34;;;;;;;4.43;1.45;;;9.60;83.10;;;;;;5001143;28;20026;-82
2021/10/23 08:02:02;;;;;;;5.07;1.90;;;9.60;82.40;;;;;;5001667;28;20027;-82
2021/10/23 08:04:29;;;;;;;4.72;1.92;;;9.60;81.80;;;;;;5001618;28;20053;-82
2021/10/23 08:07:02;;;;;;;6.22;1.23;;;9.40;81.80;;;;;;5000042;28;20141;-82
2021/10/23 08:09:29;;;;;;;4.18;1.65;;;9.20;83.10;;;;;;4983894;28;20050;-82
2021/10/23 08:11:55;;;;;;;4.10;1.50;;;9.10;84.10;;;;;;4999531;28;20034;-81
2021/10/23 08:14:21;;;;;;;8.70;1.60;;;9.10;83.50;;;;;;4999498;28;20078;-81
2021/10/23 08:16:47;;;;;;;5.07;1.38;;;9.10;83.70;;;;;;4999584;28;20030;-82
2021/10/23 08:19:13;;;;;;;5.97;1.48;;;9.20;84.10;;;;;;4981755;28;20037;-82
2021/10/23 08:21:40;;;;;;;2.92;1.13;;;9.30;84.30;;;;;;4999244;28;20033;-82
2021/10/23 08:24:06;;;;;;;4.63;1.67;;;9.40;84.40;;;;;;5008970;28;20812;-81
2021/10/23 08:26:32;;;;;;;6.05;1.90;;;9.50;82.60;;;;;;4983119;28;20061;-81
2021/10/23 08:28:58;;;;;;;5.70;1.70;;;9.60;82.40;;;;;;4999570;28;20030;-81
2021/10/23 08:31:24;;;;;;;3.50;1.38;;;9.70;82.40;;;;;;4999679;28;20391;-81
2021/10/23 08:33:51;;;;;;;3.53;1.48;;;9.80;82.20;;;;;;4999165;28;20022;-81
2021/10/23 08:36:17;;;;;;;2.13;1.10;;;9.90;82.20;;;;;;4999590;28;20387;-82
2021/10/23 08:38:43;;;;;;;3.08;1.20;;;10.20;82.60;;;;;;4999731;28;20030;-82
2021/10/23 08:41:11;;;;;;;13.73;4.60;;;10.60;80.80;;;;;;4999474;28;20022;-81
2021/10/23 08:43:43;;;;;;;8.70;3.90;;;10.90;78.00;;;;;;4982085;28;20034;-81
2021/10/23 08:46:21;;;;;;;11.60;3.47;;;10.70;77.60;;;;;;4981497;28;20030;-82
2021/10/23 08:48:52;;;;;;;5.30;2.58;;;10.80;77.70;;;;;;5002473;28;20105;-82
2021/10/23 08:51:22;;;;;;;7.38;3.25;;;10.90;77.70;;;;;;5000430;28;20033;-82
2021/10/23 08:53:49;;;;;;;5.10;2.78;;;11.10;77.50;;;;;;4990424;28;20018;-81
2021/10/23 08:56:15;;;;;;;4.90;1.73;;;11.40;77.00;;;;;;5001537;28;20034;-81
2021/10/23 08:58:41;;;;;;;4.97;1.80;;;11.60;75.40;;;;;;5000801;28;20058;-82
2021/10/23 09:01:10;;;;;;;8.93;2.38;;;11.80;74.00;;;;;;4999951;28;20082;-81
2021/10/23 09:03:38;;;;;;;3.05;1.35;;;11.90;73.80;;;;;;4999432;28;20026;-82
2021/10/23 09:06:04;;;;;;;4.55;1.80;;;11.90;73.30;;;;;;4981424;28;20053;-82
2021/10/23 09:08:30;;;;;;;5.97;2.00;;;12.10;72.60;;;;;;4984073;28;20074;-83
2021/10/23 09:10:57;;;;;;;3.78;1.58;;;12.10;72.10;;;;;;5002945;28;20046;-82
2021/10/23 09:13:34;;;;;;;6.53;1.42;;;12.00;71.90;;;;;;5006357;28;20010;-82
2021/10/23 09:16:18;;;;;;;5.18;1.60;;;12.00;72.50;;;;;;5016764;28;20037;-81
2021/10/23 09:18:50;;;;;;;3.45;2.00;;;12.10;72.10;;;;;;5004459;28;20026;-81
2021/10/23 09:21:17;;;;;;;6.05;1.80;;;12.10;71.60;;;;;;4987614;28;20026;-81
2021/10/23 09:23:46;;;;;;;5.63;1.80;;;12.30;71.50;;;;;;5004034;28;20022;-82
2021/10/23 09:26:37;;;;;;;5.40;1.83;;;12.80;70.10;;;;;;5008264;28;20042;-81
2021/10/23 09:29:18;;;;;;;7.13;1.70;;;13.20;68.90;;;;;;5006921;28;20053;-81
2021/10/23 09:31:46;;;;;;;8.50;2.00;;;13.80;67.20;;;;;;5013020;28;20302;-82
2021/10/23 09:34:14;;;;;;;4.88;1.95;;;14.10;65.50;;;;;;4970919;28;20039;-81
2021/10/23 09:36:55;;;;;;;2.75;1.40;;;14.30;63.60;;;;;;4985268;28;20030;-82
2021/10/23 09:39:31;;;;;;;4.07;1.38;;;13.90;64.10;;;;;;4983261;28;20022;-81
2021/10/23 09:42:12;;;;;;;4.97;1.98;;;13.50;64.80;;;;;;4986731;28;20021;-81
2021/10/23 09:44:53;;;;;;;2.58;1.00;;;13.30;66.00;;;;;;4989518;28;20112;-81
2021/10/23 09:47:18;;;;;;;3.22;1.27;;;13.00;67.10;;;;;;4981264;28;20023;-82
2021/10/23 09:50:04;;;;;;;4.28;1.67;;;12.90;67.50;;;;;;4987344;28;20092;-82
2021/10/23 09:52:34;;;;;;;6.00;1.73;;;12.90;66.90;;;;;;5004573;28;20502;-81
2021/10/23 09:55:08;;;;;;;4.50;1.48;;;12.50;67.20;;;;;;5010943;28;20080;-82
2021/10/23 09:57:34;;;;;;;4.15;1.27;;;12.20;69.70;;;;;;5018391;28;20033;-82
2021/10/23 10:00:08;;;;;;;5.72;1.40;;;12.30;70.40;;;;;;5018949;28;20010;-82
2021/10/23 10:02:37;;;;;;;4.10;1.13;;;12.60;69.10;;;;;;5018003;28;20036;-82
2021/10/23 10:05:04;;;;;;;7.63;1.58;;;12.90;68.50;;;;;;5000969;28;20057;-81
2021/10/23 10:07:31;;;;;;;2.88;1.10;;;13.00;66.40;;;;;;4990886;28;20044;-82
2021/10/23 10:09:58;;;;;;;3.08;1.17;;;12.80;66.60;;;;;;4998070;28;20033;-81
2021/10/23 10:12:24;;;;;;;5.18;1.08;;;12.60;67.60;;;;;;5001993;28;20034;-81
2021/10/23 10:14:52;;;;;;;3.72;1.10;;;12.40;68.10;;;;;;5001896;28;20058;-82
2021/10/23 10:17:19;;;;;;;4.03;1.50;;;12.50;68.30;;;;;;4985788;28;20041;-82
2021/10/23 10:19:46;;;;;;;2.50;0.90;;;12.90;68.30;;;;;;4985243;28;20026;-82
2021/10/23 10:22:12;;;;;;;4.53;2.40;;;13.40;67.30;;;;;;5005889;28;20482;-83
2021/10/23 10:24:38;;;;;;;2.22;1.13;;;14.00;65.20;;;;;;4993368;28;20026;-83
2021/10/23 10:27:09;;;;;;;2.00;0.90;;;14.40;62.30;;;;;;5003129;28;20061;-82
2021/10/23 10:29:57;;;;;;;1.70;1.00;;;14.50;61.60;;;;;;5002999;28;20093;-81
2021/10/23 10:32:29;;;;;;;2.70;0.93;;;14.80;60.50;;;;;;4998937;28;20025;-81
2021/10/23 10:43:15;;;;;;;7.63;1.15;;;15.00;58.50;;;;;;4996720;28;20049;-81
2021/10/23 10:45:47;;;;;;;3.30;1.40;;;15.00;58.60;;;;;;4997184;28;20032;-81
2021/10/23 10:48:29;;;;;;;2.25;1.08;;;15.10;58.70;;;;;;4996548;28;20026;-82
2021/10/23 10:51:04;;;;;;;2.67;0.88;;;15.30;57.40;;;;;;4980611;28;20086;-82
2021/10/23 10:53:30;;;;;;;2.38;1.08;;;15.40;56.80;;;;;;4988522;28;20399;-82
2021/10/23 10:55:58;;;;;;;1.92;1.08;;;15.50;55.70;;;;;;5004331;28;20027;-82
2021/10/23 10:58:46;;;;;;;4.65;1.20;;;15.50;56.50;;;;;;5015731;28;20514;-82
2021/10/23 11:01:26;;;;;;;4.53;1.20;;;15.60;55.40;;;;;;5002206;28;20097;-82
2021/10/23 11:03:52;;;;;;;4.55;1.30;;;15.40;57.30;;;;;;4980604;28;20030;-82
2021/10/23 11:06:45;;;;;;;4.57;1.63;;;15.20;56.40;;;;;;4980723;28;20030;-82
2021/10/23 11:09:11;;;;;;;2.88;1.35;;;15.00;56.60;;;;;;4997810;28;20071;-82
2021/10/23 11:11:46;;;;;;;4.28;1.25;;;14.40;57.90;;;;;;4980288;28;20073;-82
2021/10/23 11:14:24;;;;;;;3.92;1.50;;;13.80;60.30;;;;;;4997120;28;20022;-82
2021/10/23 11:16:56;;;;;;;3.55;1.20;;;13.50;62.70;;;;;;4997595;28;20045;-82
2021/10/23 11:19:37;;;;;;;7.00;1.95;;;13.20;63.80;;;;;;4989425;28;20030;-83
2021/10/23 11:22:06;;;;;;;5.97;1.55;;;13.10;63.90;;;;;;5011887;28;20035;-82
2021/10/23 11:24:37;;;;;;;3.63;1.45;;;12.80;64.60;;;;;;5004753;28;20060;-83
2021/10/23 11:27:03;;;;;;;5.03;1.10;;;12.40;65.90;;;;;;5018236;28;20037;-82
2021/10/23 11:29:30;;;;;;;4.75;1.13;;;12.10;66.80;;;;;;5018192;28;20026;-82
2021/10/23 11:31:56;;;;;;;4.70;1.60;;;12.10;68.50;;;;;;5017038;28;20518;-82
2021/10/23 11:34:31;;;;;;;1.50;0.85;;;12.30;67.30;;;;;;5016226;28;20030;-83
2021/10/23 11:37:07;;;;;;;1.55;0.77;;;12.50;67.10;;;;;;4978243;28;20029;-82
2021/10/23 11:39:40;;;;;;;2.60;1.30;;;13.20;65.80;;;;;;4980505;28;20022;-82
2021/10/23 11:42:28;;;;;;;1.65;1.02;;;13.50;60.90;;;;;;4982095;28;20022;-82
2021/10/23 11:45:05;;;;;;;4.65;1.25;;;13.20;60.50;;;;;;4981778;28;20103;-83
2021/10/23 11:47:31;;;;;;;1.02;0.70;;;13.00;61.50;;;;;;4983915;28;20031;-81
2021/10/23 11:50:01;;;;;;;2.65;1.00;;;12.80;61.70;;;;;;4969869;28;20026;-81
2021/10/23 11:52:28;;;;;;;1.90;0.75;;;12.70;62.30;;;;;;4994329;28;20464;-82
2021/10/23 11:54:55;;;;;;;2.33;1.10;;;12.60;62.00;;;;;;4991469;28;20034;-82
2021/10/23 11:57:43;;;;;;;4.30;0.80;;;12.60;62.00;;;;;;5001657;28;20495;-81
2021/10/23 12:00:17;;;;;;;2.05;0.95;;;12.50;61.10;;;;;;5001070;28;20029;-81
2021/10/23 12:02:51;;;;;;;1.45;0.75;;;12.40;60.80;;;;;;5001580;28;20037;-82
2021/10/23 12:05:25;;;;;;;1.45;0.77;;;12.50;60.00;;;;;;5001932;28;20186;-82
2021/10/23 12:08:28;;;;;;;0.68;0.40;;;12.90;56.60;;;;;;5000189;28;20494;-82
2021/10/23 12:11:05;;;;;;;0.65;0.50;;;13.70;54.00;;;;;;4908200;29;20036;-83
2021/10/23 12:13:44;;;;;;;3.95;0.70;;;14.30;51.40;;;;;;4987880;28;20041;-81
2021/10/23 12:16:11;;;;;;;1.23;0.60;;;14.90;48.90;;;;;;4982498;28;20054;-83
2021/10/23 12:18:38;;;;;;;2.30;0.98;;;15.40;49.60;;;;;;5000419;28;20050;-83
2021/10/23 12:21:11;;;;;;;1.27;0.60;;;15.90;48.80;;;;;;5000734;28;20018;-82
2021/10/23 12:23:42;;;;;;;1.00;0.63;;;16.00;47.40;;;;;;4991040;28;20117;-82
2021/10/23 12:26:07;;;;;;;5.05;1.08;;;16.00;48.20;;;;;;5000896;28;20023;-83
2021/10/23 12:29:05;;;;;;;4.05;1.00;;;16.00;47.60;;;;;;5000562;28;20080;-82
2021/10/23 12:31:54;;;;;;;2.65;1.40;;;16.00;48.60;;;;;;5004229;28;20022;-81
2021/10/23 12:34:20;;;;;;;3.60;1.73;;;16.00;51.60;;;;;;4991556;28;20030;-81
2021/10/23 12:36:55;;;;;;;3.90;1.80;;;15.70;53.40;;;;;;5004830;28;20089;-82
2021/10/23 12:39:28;;;;;;;2.35;1.20;;;15.10;54.60;;;;;;5001330;28;20173;-82
2021/10/23 12:41:56;;;;;;;3.55;1.50;;;14.70;55.40;;;;;;5001839;28;20038;-82
2021/10/23 12:44:26;;;;;;;1.45;1.10;;;14.20;57.30;;;;;;5012077;28;20045;-82
2021/10/23 12:46:53;;;;;;;2.83;1.42;;;13.80;58.60;;;;;;4990233;28;20033;-82
2021/10/23 12:49:21;;;;;;;3.20;1.10;;;13.40;59.20;;;;;;5004261;28;20049;-81
2021/10/23 12:51:47;;;;;;;3.58;1.17;;;13.10;59.70;;;;;;5002342;28;20090;-82
2021/10/23 12:54:18;;;;;;;1.77;0.90;;;13.00;60.20;;;;;;5012612;28;20057;-82
2021/10/23 12:56:45;;;;;;;3.78;1.20;;;12.80;59.90;;;;;;5020151;28;20564;-81
2021/10/23 12:59:11;;;;;;;1.17;0.77;;;12.80;58.80;;;;;;5023853;28;20022;-82
2021/10/23 13:01:38;;;;;;;4.22;1.35;;;12.90;58.80;;;;;;5010022;28;20090;-82
2021/10/23 13:04:05;;;;;;;1.65;0.95;;;13.00;58.40;;;;;;5000284;28;20023;-81
2021/10/23 13:06:31;;;;;;;1.02;0.73;;;13.30;58.90;;;;;;4982974;28;20480;-81